Latest Coastal Weather Observations for St Lawrence

IDQ60701

Issued at 10:42 pm EST Thursday 2 July 2015 (issued every 10 minutes, with the page automatically refreshed every 10 minutes)

About coastal observations | Map of coastal stations | Coastal observations for QLD | Marine services | Other Formats
Station Details ID: 033210 Name: ST LAWRENCE Lat: -22.35 Lon: 149.52 Height: 9.19 m
Data from the previous 72 hours. | See also: Recent months at St Lawrence
Date/Time
EST
Temp

°C
Wind Pressure Rain
since 9am
mm
Weather Cloud Vis
km
Sea
Height
m
Swell
Dir
 
Speed
knots
Gust
knots
hPa Trend Height
m
Period
s
Dir
02/10:30pm 13.0 SSW 3 4 1021.2 - 0.0 - - - - - - -
02/10:00pm 13.5 CALM 0 0 1021.3 - 0.0 - - - - - - -
02/09:30pm 13.6 CALM 0 0 1021.2 - 0.0 - - - - - - -
02/09:00pm 15.1 CALM 0 0 1020.9 - 0.0 - - - - - - -
02/08:30pm 16.6 SSE 4 7 1020.7 - 0.0 - - - - - - -
02/08:00pm 17.2 S 5 7 1020.3 - 0.0 - - - - - - -
02/07:30pm 18.1 S 6 8 1020.0 - 0.0 - - - - - - -
02/07:00pm 19.6 SSE 5 7 1019.3 - 0.0 - - - - - - -
02/06:30pm 18.4 SE 4 5 1018.8 - 0.0 - - - - - - -
02/06:00pm 19.1 SE 3 4 1018.6 - 0.0 - - - - - - -
02/05:30pm 22.1 SSE 4 6 1018.4 - 0.0 - - - - - - -
02/05:00pm 23.7 SSE 6 8 1018.2 - 0.0 - - - - - - -
02/04:30pm 24.5 SSE 6 9 1017.9 - 0.0 - - - - - - -
02/04:00pm 24.6 SSE 7 11 1017.9 - 0.0 - - - - - - -
02/03:30pm 25.2 S 5 11 1018.0 - 0.0 - - - - - - -
02/03:00pm 25.6 SSW 8 14 1018.0 - 0.0 - - - - - - -
02/02:30pm 25.3 S 8 12 1018.2 - 0.0 - - - - - - -
02/02:00pm 25.8 SSW 9 16 1018.3 - 0.0 - - - - - - -
02/01:30pm 24.8 S 9 12 1018.4 - 0.0 - - - - - - -
02/01:00pm 24.9 SSE 9 15 1019.0 - 0.0 - - - - - - -
02/12:30pm 23.9 SSE 8 14 1019.8 - 0.0 - - - - - - -
02/12:00pm 23.0 SE 9 14 1020.4 - 0.0 - - - - - - -
02/11:30am 22.4 SE 8 12 1020.9 - 0.0 - - - - - - -
02/11:00am 22.2 SSE 8 13 1021.5 - 0.0 - - - - - - -
02/10:30am 20.8 S 11 15 1022.3 - 0.0 - - - - - - -
02/10:00am 19.8 S 11 15 1022.6 - 0.0 - - - - - - -
02/09:30am 19.1 S 9 15 1022.6 - 0.0 - - - - - - -
02/09:00am 17.7 S 10 15 1022.7 - 0.0 - - - - - - -
02/08:30am 16.7 S 9 13 1022.8 - 0.0 - - - - - - -
02/08:00am 15.9 S 5 9 1022.8 - 0.0 - - - - - - -
02/07:30am 14.9 S 7 10 1022.5 - 0.0 - - - - - - -
02/07:00am 14.3 S 7 9 1022.1 - 0.0 - - - - - - -
02/06:30am 14.3 S 7 9 1021.6 - 0.0 - - - - - - -
02/06:00am 14.1 S 5 7 1021.2 - 0.0 - - - - - - -
02/05:30am 14.5 S 6 9 1021.1 - 0.0 - - - - - - -
02/05:00am 14.5 S 6 9 1021.0 - 0.0 - - - - - - -
02/04:30am 14.8 S 7 10 1021.0 - 0.0 - - - - - - -
02/04:00am 14.7 S 6 9 1021.1 - 0.0 - - - - - - -
02/03:30am 15.3 S 5 7 1021.0 - 0.0 - - - - - - -
02/03:00am 15.5 S 5 7 1020.9 - 0.0 - - - - - - -
02/02:30am 16.0 S 5 7 1021.1 - 0.0 - - - - - - -
02/02:00am 16.1 SSE 5 7 1021.2 - 0.0 - - - - - - -
02/01:30am 14.2 S 4 5 1021.4 - 0.0 - - - - - - -
02/01:00am 14.5 SSW 3 4 1021.6 - 0.0 - - - - - - -
02/12:30am 15.5 SW 3 4 1021.6 - 0.0 - - - - - - -
02/12:00am 15.3 CALM 0 0 1021.9 - 0.0 - - - - - - -
 
Date/Time
EST
Temp

°C
Wind Pressure Rain
since 9am
mm
Weather Cloud Vis
km
Sea
Height
m
Swell
Dir
 
Speed
knots
Gust
knots
hPa Trend Height
m
Period
s
Dir
01/11:30pm 15.0 CALM 0 0 1022.0 - 0.0 - - - - - - -
01/11:00pm 15.6 CALM 0 0 1022.1 - 0.0 - - - - - - -
01/10:30pm 15.9 SW 3 4 1022.0 - 0.0 - - - - - - -
01/10:00pm 16.0 CALM 0 0 1022.1 - 0.0 - - - - - - -
01/09:30pm 16.5 SSW 1 3 1022.1 - 0.0 - - - - - - -
01/09:00pm 17.1 CALM 0 0 1022.0 - 0.0 - - - - - - -
01/08:30pm 17.4 CALM 0 0 1021.8 - 0.0 - - - - - - -
01/08:00pm 18.2 SSW 2 4 1021.5 - 0.0 - - - - - - -
01/07:30pm 19.3 NE 2 4 1021.1 - 0.0 - - - - - - -
01/07:00pm 20.2 NE 4 5 1020.8 - 0.0 - - - - - - -
01/06:30pm 20.9 NE 5 6 1020.6 - 0.0 - - - - - - -
01/06:00pm 21.5 NNE 5 6 1020.2 - 0.0 - - - - - - -
01/05:30pm 22.1 NE 6 8 1020.0 - 0.0 - - - - - - -
01/05:00pm 23.7 NE 7 9 1019.7 - 0.0 - - - - - - -
01/04:30pm 24.5 NNE 8 11 1019.4 - 0.0 - - - - - - -
01/04:00pm 25.3 NNE 8 10 1019.3 - 0.0 - - - - - - -
01/03:30pm 26.5 NNE 5 11 1019.2 - 0.0 - - - - - - -
01/03:00pm 26.1 NE 6 10 1019.4 - 0.0 - - - - - - -
01/02:30pm 25.9 NE 6 11 1019.7 - 0.0 - - - - - - -
01/02:00pm 25.1 NNE 8 11 1020.0 - 0.0 - - - - - - -
01/01:30pm 25.2 ENE 5 7 1020.3 - 0.0 - - - - - - -
01/01:00pm 25.6 S 5 8 1020.7 - 0.0 - - - - - - -
01/12:30pm 25.1 SE 5 10 1021.4 - 0.0 - - - - - - -
01/12:00pm 25.4 SSE 5 10 1022.2 - 0.0 - - - - - - -
01/11:30am 24.5 SSE 7 10 1022.7 - 0.0 - - - - - - -
01/11:00am 24.5 SE 5 8 1023.1 - 0.0 - - - - - - -
01/10:30am 23.2 SE 5 8 1023.4 - 0.0 - - - - - - -
01/10:00am 22.3 SSE 6 8 1023.8 - 0.0 - - - - - - -
01/09:30am 21.3 SSE 7 10 1023.7 - 0.0 - - - - - - -
01/09:00am 20.5 S 8 11 1023.8 - 0.0 - - - - - - -
01/08:30am 19.3 S 8 11 1023.7 - 0.0 - - - - - - -
01/08:00am 17.9 SSW 5 7 1023.8 - 0.0 - - - - - - -
01/07:30am 16.6 S 4 6 1023.5 - 0.0 - - - - - - -
01/07:00am 15.9 S 4 5 1023.3 - 0.0 - - - - - - -
01/06:30am 16.2 S 5 6 1023.0 - 0.0 - - - - - - -
01/06:00am 16.5 S 5 7 1022.7 - 0.0 - - - - - - -
01/05:30am 16.5 S 4 6 1022.7 - 0.0 - - - - - - -
01/05:00am 15.9 S 4 5 1022.4 - 0.0 - - - - - - -
01/04:30am 15.9 SSW 3 4 1022.2 - 0.0 - - - - - - -
01/04:00am 16.6 S 4 5 1022.3 - 0.0 - - - - - - -
01/03:30am 16.7 S 1 3 1022.4 - 0.0 - - - - - - -
01/03:00am 17.4 S 3 4 1022.3 - 0.0 - - - - - - -
01/02:30am 17.9 S 4 5 1022.4 - 0.0 - - - - - - -
01/02:00am 18.1 S 5 7 1022.4 - 0.0 - - - - - - -
01/01:30am 18.4 S 5 8 1022.6 - 0.0 - - - - - - -
01/01:00am 18.7 S 5 6 1022.8 - 0.0 - - - - - - -
01/12:30am 19.0 S 4 8 1022.9 - 0.0 - - - - - - -
01/12:00am 19.1 S 4 6 1023.0 - 0.0 - - - - - - -
 
Date/Time
EST
Temp

°C
Wind Pressure Rain
since 9am
mm
Weather Cloud Vis
km
Sea
Height
m
Swell
Dir
 
Speed
knots
Gust
knots
hPa Trend Height
m
Period
s
Dir
30/11:30pm 19.3 SSW 4 6 1023.3 - 0.0 - - - - - - -
30/11:00pm 19.6 S 3 5 1023.6 - 0.0 - - - - - - -
30/10:30pm 19.7 SSE 3 4 1023.7 - 0.0 - - - - - - -
30/10:00pm 20.0 SSE 4 5 1023.6 - 0.0 - - - - - - -
30/09:30pm 20.0 S 3 5 1023.8 - 0.0 - - - - - - -
30/09:00pm 20.4 CALM 0 0 1023.6 - 0.0 - - - - - - -
30/08:30pm 20.8 SE 3 5 1023.5 - 0.0 - - - - - - -
30/08:00pm 21.1 SE 4 8 1023.4 - 0.0 - - - - - - -
30/07:30pm 21.5 ESE 8 11 1023.1 - 0.0 - - - - - - -
30/07:00pm 21.8 ESE 5 10 1022.8 - 0.0 - - - - - - -
30/06:30pm 22.1 ESE 4 7 1022.3 - 0.0 - - - - - - -
30/06:00pm 22.4 ESE 6 8 1021.9 - 0.0 - - - - - - -
30/05:30pm 22.9 SE 5 8 1021.8 - 0.0 - - - - - - -
30/05:00pm 23.4 SE 6 9 1021.5 - 0.0 - - - - - - -
30/04:30pm 24.4 SE 6 10 1021.2 - 0.0 - - - - - - -
30/04:00pm 24.8 ESE 6 10 1021.1 - 0.0 - - - - - - -
30/03:30pm 25.0 ESE 3 8 1021.1 - 0.0 - - - - - - -
30/03:00pm 24.9 ESE 7 11 1021.2 - 0.0 - - - - - - -
30/02:30pm 25.4 ESE 6 10 1021.3 - 0.0 - - - - - - -
30/02:00pm 25.2 SE 6 11 1021.4 - 0.0 - - - - - - -
30/01:30pm 24.5 ESE 7 11 1021.6 - 0.0 - - - - - - -
30/01:00pm 24.2 ESE 7 11 1022.1 - 0.0 - - - - - - -
30/12:30pm 24.3 ESE 6 11 1022.5 - 0.0 - - - - - - -
30/12:00pm 24.5 ESE 6 9 1023.0 - 0.0 - - - - - - -
30/11:30am 23.6 SE 10 15 1023.5 - 0.0 - - - - - - -
30/11:00am 23.9 SE 7 11 1024.0 - 0.0 - - - - - - -
30/10:30am 23.2 SE 7 11 1024.4 - 0.0 - - - - - - -
30/10:00am 22.4 SSE 7 12 1024.5 - 0.0 - - - - - - -
30/09:30am 21.3 SSE 8 13 1024.7 - 0.0 - - - - - - -
30/09:00am 20.2 SSE 10 13 1024.6 - 0.4 - - - - - - -
30/08:30am 19.6 S 6 11 1024.4 - 0.4 - - - - - - -
30/08:00am 18.7 S 6 10 1024.3 - 0.4 - - - - - - -
30/07:30am 17.9 S 6 8 1023.9 - 0.4 - - - - - - -
30/07:00am 17.8 S 6 8 1023.7 - 0.4 - - - - - - -
30/06:30am 17.7 S 6 8 1023.3 - 0.4 - - - - - - -
30/06:00am 17.7 S 6 10 1023.0 - 0.4 - - - - - - -
30/05:30am 17.6 S 5 8 1022.7 - 0.4 - - - - - - -
30/05:00am 17.5 S 6 7 1022.7 - 0.4 - - - - - - -
30/04:30am 17.4 S 6 9 1022.6 - 0.4 - - - - - - -
30/04:00am 17.4 S 6 9 1022.6 - 0.4 - - - - - - -
30/03:30am 17.2 SSE 6 8 1022.5 - 0.4 - - - - - - -
30/03:00am 16.7 S 4 6 1022.6 - 0.4 - - - - - - -
30/02:30am 16.7 SW 3 4 1022.8 - 0.4 - - - - - - -
30/02:00am 17.3 S 3 4 1022.6 - 0.4 - - - - - - -
30/01:30am 17.9 SE 4 7 1023.0 - 0.4 - - - - - - -
30/01:00am 18.4 SE 5 7 1023.6 - 0.4 - - - - - - -
30/12:30am 18.1 S 1 4 1024.1 - 0.4 - - - - - - -
30/12:00am 18.2 S 3 5 1023.9 - 0.4 - - - - - - -
 
Date/Time
EST
Temp

°C
Wind Pressure Rain
since 9am
mm
Weather Cloud Vis
km
Sea
Height
m
Swell
Dir
 
Speed
knots
Gust
knots
hPa Trend Height
m
Period
s
Dir
29/11:30pm 18.3 S 5 8 1024.1 - 0.4 - - - - - - -
29/11:00pm 18.5 S 5 7 1024.4 - 0.4 - - - - - - -

Other Formats:

Comma delimited format used in spreadsheet applications
http://www.bom.gov.au/fwo/IDQ60701/IDQ60701.95369.axf

JavaScript Object Notation format (JSON) in row-major order
http://www.bom.gov.au/fwo/IDQ60701/IDQ60701.95369.json